Time;durP1;ratioP1;P1;durP2;ratioP2;P2;SDS_P1;SDS_P2;PMS_P1;PMS_P2;Temp;Humidity;BMP_temperature;BMP_pressure;BME280_temperature;BME280_humidity;BME280_pressure;Samples;Min_cycle;Max_cycle;Signal;HPM_P1;HPM_P2
2024/03/25 00:00:10;;;;;;;;;;;;;;;;;;5095321;28;19916;-59
2024/03/25 00:02:35;;;;;;;;;;;;;;;;;;5092200;28;19908;-59
2024/03/25 00:05:00;;;;;;;;;;;;;;;;;;5092061;28;19908;-59
2024/03/25 00:07:26;;;;;;;;;;;;;;;;;;5092353;28;19912;-60
2024/03/25 00:09:51;;;;;;;;;;;;;;;;;;5092198;28;19908;-60
2024/03/25 00:12:16;;;;;;;;;;;;;;;;;;5100222;28;19908;-59
2024/03/25 00:14:41;;;;;;;;;;;;;;;;;;5098528;28;19908;-59
2024/03/25 00:17:07;;;;;;;;;;;;;;;;;;5101182;28;19912;-60
2024/03/25 00:19:32;;;;;;;;;;;;;;;;;;5104647;28;19942;-59
2024/03/25 00:21:57;;;;;;;;;;;;;;;;;;5096306;28;20304;-60
2024/03/25 00:24:23;;;;;;;;;;;;;;;;;;5092433;28;19951;-60
2024/03/25 00:26:48;;;;;;;;;;;;;;;;;;5092309;28;19912;-60
2024/03/25 00:29:14;;;;;;;;;;;;;;;;;;5091936;28;19908;-59
2024/03/25 00:31:39;;;;;;;;;;;;;;;;;;5108479;28;20249;-60
2024/03/25 00:34:04;;;;;;;;;;;;;;;;;;5109629;28;19952;-59
2024/03/25 00:36:29;;;;;;;;;;;;;;;;;;5109659;28;19915;-60
2024/03/25 00:38:55;;;;;;;;;;;;;;;;;;5110595;28;20025;-62
2024/03/25 00:41:20;;;;;;;;;;;;;;;;;;5108013;28;19976;-62
2024/03/25 00:43:45;;;;;;;;;;;;;;;;;;5104982;28;20057;-62
2024/03/25 00:46:10;;;;;;;;;;;;;;;;;;5091940;28;19958;-61
2024/03/25 00:48:37;;;;;;;;;;;;;;;;;;5091800;28;19919;-62
2024/03/25 00:51:02;;;;;;;;;;;;;;;;;;5092021;28;19912;-62
2024/03/25 00:53:27;;;;;;;;;;;;;;;;;;5091554;28;19962;-61
2024/03/25 00:55:52;;;;;;;;;;;;;;;;;;5093625;28;19934;-61
2024/03/25 00:58:17;;;;;;;;;;;;;;;;;;5091521;28;19920;-62
2024/03/25 01:00:43;;;;;;;;;;;;;;;;;;5091817;28;19914;-61
2024/03/25 01:03:08;;;;;;;;;;;;;;;;;;5091447;28;19915;-61
2024/03/25 01:05:33;;;;;;;;;;;;;;;;;;5104925;28;20427;-61
2024/03/25 01:07:58;;;;;;;;;;;;;;;;;;5098897;28;19909;-62
2024/03/25 01:10:23;;;;;;;;;;;;;;;;;;5097153;28;20368;-62
2024/03/25 01:12:48;;;;;;;;;;;;;;;;;;5109866;28;19908;-62
2024/03/25 01:15:13;;;;;;;;;;;;;;;;;;5091342;28;19910;-62
2024/03/25 01:17:39;;;;;;;;;;;;;;;;;;5092428;28;19912;-62
2024/03/25 01:20:08;;;;;;;;;;;;;;;;;;5091470;28;19912;-62
2024/03/25 01:22:34;;;;;;;;;;;;;;;;;;5091257;28;19908;-62
2024/03/25 01:24:59;;;;;;;;;;;;;;;;;;5091905;28;19923;-62
2024/03/25 01:27:24;;;;;;;;;;;;;;;;;;5095121;28;19908;-62
2024/03/25 01:29:49;;;;;;;;;;;;;;;;;;5097203;28;19916;-62
2024/03/25 01:32:14;;;;;;;;;;;;;;;;;;5094892;28;19912;-62
2024/03/25 01:34:39;;;;;;;;;;;;;;;;;;5112837;28;19961;-62
2024/03/25 01:37:05;;;;;;;;;;;;;;;;;;5114196;28;19919;-62
2024/03/25 01:39:30;;;;;;;;;;;;;;;;;;5113877;28;19930;-62
2024/03/25 01:41:55;;;;;;;;;;;;;;;;;;5105347;28;20620;-62
2024/03/25 01:44:20;;;;;;;;;;;;;;;;;;5095943;28;19915;-62
2024/03/25 01:46:45;;;;;;;;;;;;;;;;;;5094806;28;19954;-60
2024/03/25 01:49:11;;;;;;;;;;;;;;;;;;5105755;28;19942;-60
2024/03/25 01:51:36;;;;;;;;;;;;;;;;;;5097486;28;20513;-59
2024/03/25 01:54:01;;;;;;;;;;;;;;;;;;5102879;28;19908;-60
2024/03/25 01:56:26;;;;;;;;;;;;;;;;;;5095024;28;19908;-60
2024/03/25 01:58:51;;;;;;;;;;;;;;;;;;5095454;28;19915;-59
2024/03/25 02:01:16;;;;;;;;;;;;;;;;;;5094077;28;19916;-60
2024/03/25 02:03:41;;;;;;;;;;;;;;;;;;5106625;28;20038;-60
2024/03/25 02:06:08;;;;;;;;;;;;;;;;;;5094829;28;20279;-60
2024/03/25 02:08:33;;;;;;;;;;;;;;;;;;5094703;28;19915;-60
2024/03/25 02:10:58;;;;;;;;;;;;;;;;;;5094740;28;19916;-60
2024/03/25 02:13:24;;;;;;;;;;;;;;;;;;5102958;28;20522;-60
2024/03/25 02:15:51;;;;;;;;;;;;;;;;;;5095158;28;19908;-60
2024/03/25 02:18:16;;;;;;;;;;;;;;;;;;5101697;28;19907;-60
2024/03/25 02:20:41;;;;;;;;;;;;;;;;;;5100145;28;19911;-60
2024/03/25 02:23:07;;;;;;;;;;;;;;;;;;5106619;28;19919;-60
2024/03/25 02:25:32;;;;;;;;;;;;;;;;;;5094271;28;19961;-60
2024/03/25 02:27:57;;;;;;;;;;;;;;;;;;5094066;28;19970;-61
2024/03/25 02:30:22;;;;;;;;;;;;;;;;;;5103103;28;19908;-60
2024/03/25 02:32:47;;;;;;;;;;;;;;;;;;5099033;28;19923;-59
2024/03/25 02:35:12;;;;;;;;;;;;;;;;;;5094101;28;19915;-59
2024/03/25 02:37:38;;;;;;;;;;;;;;;;;;5093923;28;19908;-60
2024/03/25 02:40:05;;;;;;;;;;;;;;;;;;5101638;28;20000;-60
2024/03/25 02:42:30;;;;;;;;;;;;;;;;;;5099626;28;20439;-59
2024/03/25 02:44:55;;;;;;;;;;;;;;;;;;5113115;28;19943;-60
2024/03/25 02:47:20;;;;;;;;;;;;;;;;;;5107985;28;20415;-61
2024/03/25 02:49:45;;;;;;;;;;;;;;;;;;5112668;28;20344;-60
2024/03/25 02:52:11;;;;;;;;;;;;;;;;;;5112539;28;20303;-60
2024/03/25 02:54:36;;;;;;;;;;;;;;;;;;5112608;28;20291;-60
2024/03/25 02:57:01;;;;;;;;;;;;;;;;;;5109775;28;20275;-60
2024/03/25 02:59:26;;;;;;;;;;;;;;;;;;5093568;28;20455;-60
2024/03/25 03:01:51;;;;;;;;;;;;;;;;;;5095695;28;20010;-60
2024/03/25 03:04:17;;;;;;;;;;;;;;;;;;5093674;28;19919;-60
2024/03/25 03:06:42;;;;;;;;;;;;;;;;;;5097909;28;19916;-59
2024/03/25 03:09:07;;;;;;;;;;;;;;;;;;5095899;28;19919;-60
2024/03/25 03:11:32;;;;;;;;;;;;;;;;;;5093294;28;19912;-60
2024/03/25 03:13:57;;;;;;;;;;;;;;;;;;5101030;28;19995;-59
2024/03/25 03:16:22;;;;;;;;;;;;;;;;;;5102295;28;19916;-60
2024/03/25 03:18:47;;;;;;;;;;;;;;;;;;5096366;28;19923;-60
2024/03/25 03:21:12;;;;;;;;;;;;;;;;;;5092919;28;19919;-60
2024/03/25 03:23:38;;;;;;;;;;;;;;;;;;5098954;28;19918;-59
2024/03/25 03:26:03;;;;;;;;;;;;;;;;;;5112235;28;19930;-60
2024/03/25 03:28:28;;;;;;;;;;;;;;;;;;5104164;28;19916;-60
2024/03/25 03:30:53;;;;;;;;;;;;;;;;;;5096907;28;20367;-60
2024/03/25 03:33:18;;;;;;;;;;;;;;;;;;5098812;28;19908;-60
2024/03/25 03:35:44;;;;;;;;;;;;;;;;;;5092971;28;20000;-60
2024/03/25 03:38:09;;;;;;;;;;;;;;;;;;5093067;28;19916;-61
2024/03/25 03:40:34;;;;;;;;;;;;;;;;;;5097098;28;19920;-60
2024/03/25 03:42:59;;;;;;;;;;;;;;;;;;5103390;28;20002;-60
2024/03/25 03:45:24;;;;;;;;;;;;;;;;;;5093929;28;19912;-60
2024/03/25 03:47:49;;;;;;;;;;;;;;;;;;5092176;28;20303;-59
2024/03/25 03:50:14;;;;;;;;;;;;;;;;;;5099875;28;20007;-61
2024/03/25 03:52:40;;;;;;;;;;;;;;;;;;5111301;28;20359;-60
2024/03/25 03:55:05;;;;;;;;;;;;;;;;;;5110216;28;19907;-60
2024/03/25 03:57:30;;;;;;;;;;;;;;;;;;5103276;28;19912;-61
2024/03/25 03:59:55;;;;;;;;;;;;;;;;;;5092547;28;19912;-59
2024/03/25 04:02:20;;;;;;;;;;;;;;;;;;5092388;28;19991;-60
2024/03/25 04:04:45;;;;;;;;;;;;;;;;;;5100330;28;19928;-60
2024/03/25 04:07:10;;;;;;;;;;;;;;;;;;5107804;28;19907;-63
2024/03/25 04:09:35;;;;;;;;;;;;;;;;;;5111113;28;19908;-63
2024/03/25 04:12:01;;;;;;;;;;;;;;;;;;5111202;28;20325;-63
2024/03/25 04:14:26;;;;;;;;;;;;;;;;;;5096721;28;19908;-63
2024/03/25 04:16:53;;;;;;;;;;;;;;;;;;5092049;28;19914;-63
2024/03/25 04:19:18;;;;;;;;;;;;;;;;;;5092217;28;19919;-63
2024/03/25 04:21:43;;;;;;;;;;;;;;;;;;5091883;28;20288;-63
2024/03/25 04:24:08;;;;;;;;;;;;;;;;;;5092008;28;19908;-63
2024/03/25 04:26:33;;;;;;;;;;;;;;;;;;5092220;28;19999;-63
2024/03/25 04:28:59;;;;;;;;;;;;;;;;;;5092670;28;20322;-63
2024/03/25 04:31:24;;;;;;;;;;;;;;;;;;5092464;28;20411;-63
2024/03/25 04:33:49;;;;;;;;;;;;;;;;;;5092002;28;20253;-63
2024/03/25 04:36:14;;;;;;;;;;;;;;;;;;5097759;28;19962;-63
2024/03/25 04:38:39;;;;;;;;;;;;;;;;;;5110326;28;19916;-64
2024/03/25 04:41:04;;;;;;;;;;;;;;;;;;5110492;28;20028;-63
2024/03/25 04:43:29;;;;;;;;;;;;;;;;;;5104945;28;19912;-63
2024/03/25 04:45:54;;;;;;;;;;;;;;;;;;5092233;28;19908;-63
2024/03/25 04:48:19;;;;;;;;;;;;;;;;;;5092102;28;19908;-63
2024/03/25 04:50:45;;;;;;;;;;;;;;;;;;5091665;28;19908;-62
2024/03/25 04:53:10;;;;;;;;;;;;;;;;;;5091232;28;19999;-63
2024/03/25 04:55:35;;;;;;;;;;;;;;;;;;5095214;28;19916;-62
2024/03/25 04:58:00;;;;;;;;;;;;;;;;;;5091565;28;19908;-63
2024/03/25 05:00:25;;;;;;;;;;;;;;;;;;5092565;28;19912;-63
2024/03/25 05:02:50;;;;;;;;;;;;;;;;;;5095859;28;20000;-63
2024/03/25 05:05:15;;;;;;;;;;;;;;;;;;5096275;28;19916;-63
2024/03/25 05:07:41;;;;;;;;;;;;;;;;;;5114654;28;19923;-63
2024/03/25 05:10:06;;;;;;;;;;;;;;;;;;5112700;28;19915;-63
2024/03/25 05:12:31;;;;;;;;;;;;;;;;;;5113341;28;19915;-63
2024/03/25 05:14:56;;;;;;;;;;;;;;;;;;5095219;28;19923;-63
2024/03/25 05:17:21;;;;;;;;;;;;;;;;;;5095389;28;19908;-63
2024/03/25 05:19:46;;;;;;;;;;;;;;;;;;5095123;28;20000;-63
2024/03/25 05:22:11;;;;;;;;;;;;;;;;;;5095539;28;19915;-63
2024/03/25 05:24:37;;;;;;;;;;;;;;;;;;5109459;28;20351;-63
2024/03/25 05:27:02;;;;;;;;;;;;;;;;;;5114338;28;20387;-62
2024/03/25 05:29:27;;;;;;;;;;;;;;;;;;5098785;28;20368;-63
2024/03/25 05:31:52;;;;;;;;;;;;;;;;;;5095265;28;20303;-64
2024/03/25 05:34:17;;;;;;;;;;;;;;;;;;5095359;28;20335;-63
2024/03/25 05:36:42;;;;;;;;;;;;;;;;;;5098348;28;20266;-63
2024/03/25 05:39:08;;;;;;;;;;;;;;;;;;5095003;28;19941;-63
2024/03/25 05:41:33;;;;;;;;;;;;;;;;;;5095168;28;20373;-63
2024/03/25 05:43:58;;;;;;;;;;;;;;;;;;5095022;28;20466;-63
2024/03/25 05:46:23;;;;;;;;;;;;;;;;;;5096227;28;20402;-63
2024/03/25 05:48:48;;;;;;;;;;;;;;;;;;5100185;28;20329;-63
2024/03/25 05:51:14;;;;;;;;;;;;;;;;;;5094679;28;19936;-63
2024/03/25 05:53:40;;;;;;;;;;;;;;;;;;5094741;28;20351;-63
2024/03/25 05:56:05;;;;;;;;;;;;;;;;;;5095360;28;20348;-62
2024/03/25 05:58:30;;;;;;;;;;;;;;;;;;5094664;28;20291;-63
2024/03/25 06:00:55;;;;;;;;;;;;;;;;;;5094742;28;19916;-63
2024/03/25 06:03:20;;;;;;;;;;;;;;;;;;5106354;28;20383;-63
2024/03/25 06:05:45;;;;;;;;;;;;;;;;;;5114975;28;19957;-63
2024/03/25 06:08:20;;;;;;;;;;;;;;;;;;5114018;28;20193;-63
2024/03/25 06:10:45;;;;;;;;;;;;;;;;;;5114688;28;19947;-63
2024/03/25 06:13:10;;;;;;;;;;;;;;;;;;5107076;28;20414;-64
2024/03/25 06:15:35;;;;;;;;;;;;;;;;;;5103116;28;20352;-63
2024/03/25 06:18:00;;;;;;;;;;;;;;;;;;5093795;28;20330;-63
2024/03/25 06:20:25;;;;;;;;;;;;;;;;;;5093781;28;20390;-63
2024/03/25 06:22:51;;;;;;;;;;;;;;;;;;5094056;28;19908;-62
2024/03/25 06:25:16;;;;;;;;;;;;;;;;;;5094148;28;20335;-62
2024/03/25 06:27:42;;;;;;;;;;;;;;;;;;5094188;28;19908;-63
2024/03/25 06:35:35;;;;;;;;;;;;;;;;;;5114187;28;19961;-63
2024/03/25 06:38:00;;;;;;;;;;;;;;;;;;5098507;28;19916;-63
2024/03/25 06:40:25;;;;;;;;;;;;;;;;;;5074237;28;19951;-62
2024/03/25 06:42:50;;;;;;;;;;;;;;;;;;5075780;28;20031;-63
2024/03/25 06:45:17;;;;;;;;;;;;;;;;;;5073278;28;19920;-62
2024/03/25 06:47:42;;;;;;;;;;;;;;;;;;5081672;28;19958;-63
2024/03/25 06:50:07;;;;;;;;;;;;;;;;;;5073333;28;19916;-63
2024/03/25 06:52:32;;;;;;;;;;;;;;;;;;5073196;28;20003;-63
2024/03/25 06:54:57;;;;;;;;;;;;;;;;;;5073041;28;19912;-63
2024/03/25 06:57:22;;;;;;;;;;;;;;;;;;5073001;28;19912;-62
2024/03/25 06:59:48;;;;;;;;;;;;;;;;;;5075853;28;19924;-63
2024/03/25 07:02:13;;;;;;;;;;;;;;;;;;5081352;28;19914;-64
2024/03/25 07:04:38;;;;;;;;;;;;;;;;;;5083885;28;19912;-64
2024/03/25 07:07:04;;;;;;;;;;;;;;;;;;5072635;28;19922;-63
2024/03/25 07:09:29;;;;;;;;;;;;;;;;;;5072674;28;19908;-62
2024/03/25 07:11:54;;;;;;;;;;;;;;;;;;5073904;28;20289;-63
2024/03/25 07:14:20;;;;;;;;;;;;;;;;;;5089959;28;20288;-63
2024/03/25 07:16:45;;;;;;;;;;;;;;;;;;5072767;28;19916;-63
2024/03/25 07:19:10;;;;;;;;;;;;;;;;;;5087703;28;19915;-63
2024/03/25 07:21:35;;;;;;;;;;;;;;;;;;5093052;28;19909;-63
2024/03/25 07:24:00;;;;;;;;;;;;;;;;;;5092075;28;20229;-62
2024/03/25 07:26:25;;;;;;;;;;;;;;;;;;5092987;28;20249;-63
2024/03/25 07:28:50;;;;;;;;;;;;;;;;;;5092906;28;19909;-63
2024/03/25 07:31:15;;;;;;;;;;;;;;;;;;5077650;28;19917;-63
2024/03/25 07:33:41;;;;;;;;;;;;;;;;;;5088701;28;19916;-63
2024/03/25 07:36:06;;;;;;;;;;;;;;;;;;5092654;28;19908;-64
2024/03/25 07:38:31;;;;;;;;;;;;;;;;;;5093180;28;20029;-61
2024/03/25 07:40:56;;;;;;;;;;;;;;;;;;5095304;28;20346;-62
2024/03/25 07:43:22;;;;;;;;;;;;;;;;;;5092341;28;20382;-63
2024/03/25 07:45:47;;;;;;;;;;;;;;;;;;5091883;28;19924;-63
2024/03/25 07:48:12;;;;;;;;;;;;;;;;;;5092254;28;19912;-62
2024/03/25 07:50:37;;;;;;;;;;;;;;;;;;5092300;28;19912;-61
2024/03/25 07:53:02;;;;;;;;;;;;;;;;;;5091947;28;19940;-60
2024/03/25 07:55:28;;;;;;;;;;;;;;;;;;5092306;28;19919;-60
2024/03/25 07:57:53;;;;;;;;;;;;;;;;;;5092099;28;19961;-61
2024/03/25 08:00:18;;;;;;;;;;;;;;;;;;5091970;28;19970;-62
2024/03/25 08:02:43;;;;;;;;;;;;;;;;;;5091915;28;19955;-62
2024/03/25 08:05:08;;;;;;;;;;;;;;;;;;5092239;28;19912;-62
2024/03/25 08:07:34;;;;;;;;;;;;;;;;;;5092365;28;19919;-62
2024/03/25 08:09:59;;;;;;;;;;;;;;;;;;5092252;28;19908;-62
2024/03/25 08:12:24;;;;;;;;;;;;;;;;;;5092571;28;19966;-62
2024/03/25 08:14:49;;;;;;;;;;;;;;;;;;5112419;28;20386;-63
2024/03/25 08:17:14;;;;;;;;;;;;;;;;;;5108801;28;19912;-62
2024/03/25 08:19:39;;;;;;;;;;;;;;;;;;5091748;28;20025;-63
2024/03/25 08:22:04;;;;;;;;;;;;;;;;;;5091744;28;19921;-62
2024/03/25 08:24:30;;;;;;;;;;;;;;;;;;5092724;28;19908;-63
2024/03/25 08:26:55;;;;;;;;;;;;;;;;;;5111986;28;19918;-62
2024/03/25 08:29:20;;;;;;;;;;;;;;;;;;5111864;28;20022;-62
2024/03/25 08:31:45;;;;;;;;;;;;;;;;;;5095484;28;19985;-62
2024/03/25 08:34:10;;;;;;;;;;;;;;;;;;5091601;28;19908;-64
2024/03/25 08:36:35;;;;;;;;;;;;;;;;;;5094276;28;19908;-62
2024/03/25 08:39:00;;;;;;;;;;;;;;;;;;5091413;28;19924;-61
2024/03/25 08:41:25;;;;;;;;;;;;;;;;;;5094700;28;20264;-61
2024/03/25 08:43:51;;;;;;;;;;;;;;;;;;5104434;28;20260;-62
2024/03/25 08:46:16;;;;;;;;;;;;;;;;;;5111158;28;19911;-62
2024/03/25 08:48:41;;;;;;;;;;;;;;;;;;5112088;28;20007;-63
2024/03/25 08:51:07;;;;;;;;;;;;;;;;;;5112041;28;19915;-63
2024/03/25 08:53:32;;;;;;;;;;;;;;;;;;5112022;28;20276;-63
2024/03/25 08:55:58;;;;;;;;;;;;;;;;;;5108610;28;19908;-63
2024/03/25 08:58:23;;;;;;;;;;;;;;;;;;5111627;28;19926;-63
2024/03/25 09:00:48;;;;;;;;;;;;;;;;;;5110800;28;19912;-63
2024/03/25 09:03:13;;;;;;;;;;;;;;;;;;5111461;28;19911;-63
2024/03/25 09:05:38;;;;;;;;;;;;;;;;;;5111565;28;19907;-62
2024/03/25 09:08:05;;;;;;;;;;;;;;;;;;5111505;28;19959;-60
2024/03/25 09:13:14;;;;;;;;;;;;;;;;;;5104052;28;19915;-61
2024/03/25 09:15:39;;;;;;;;;;;;;;;;;;5091152;28;19995;-61
2024/03/25 09:18:04;;;;;;;;;;;;;;;;;;5091375;28;19916;-60
2024/03/25 09:20:29;;;;;;;;;;;;;;;;;;5111140;28;19915;-60
2024/03/25 09:22:55;;;;;;;;;;;;;;;;;;5111096;28;19907;-61
2024/03/25 09:25:20;;;;;;;;;;;;;;;;;;5110207;28;19912;-61
2024/03/25 09:27:45;;;;;;;;;;;;;;;;;;5111837;28;19907;-60
2024/03/25 09:30:10;;;;;;;;;;;;;;;;;;5108339;28;19934;-60
2024/03/25 09:32:35;;;;;;;;;;;;;;;;;;5091475;28;20428;-61
2024/03/25 09:35:00;;;;;;;;;;;;;;;;;;5105508;28;20003;-61
2024/03/25 09:37:26;;;;;;;;;;;;;;;;;;5105817;28;19908;-61
2024/03/25 09:39:51;;;;;;;;;;;;;;;;;;5090756;28;19931;-60
2024/03/25 09:42:16;;;;;;;;;;;;;;;;;;5102401;28;19950;-60
2024/03/25 09:44:42;;;;;;;;;;;;;;;;;;5095241;28;19923;-61
2024/03/25 09:47:07;;;;;;;;;;;;;;;;;;5092737;28;19919;-60
2024/03/25 09:49:32;;;;;;;;;;;;;;;;;;5094909;28;19908;-60
2024/03/25 09:51:57;;;;;;;;;;;;;;;;;;5097188;28;19943;-60
2024/03/25 09:54:22;;;;;;;;;;;;;;;;;;5094848;28;19908;-60
2024/03/25 09:56:47;;;;;;;;;;;;;;;;;;5094926;28;20336;-60
2024/03/25 09:59:12;;;;;;;;;;;;;;;;;;5095295;28;20606;-60
2024/03/25 10:01:38;;;;;;;;;;;;;;;;;;5114707;28;19912;-61
2024/03/25 10:04:03;;;;;;;;;;;;;;;;;;5114304;28;19911;-61
2024/03/25 10:06:28;;;;;;;;;;;;;;;;;;5114801;28;19915;-60
2024/03/25 10:08:53;;;;;;;;;;;;;;;;;;5114678;28;20340;-60
2024/03/25 10:11:19;;;;;;;;;;;;;;;;;;5114762;28;19961;-61
2024/03/25 10:13:44;;;;;;;;;;;;;;;;;;5102898;28;19991;-60
2024/03/25 10:16:09;;;;;;;;;;;;;;;;;;5094338;28;19915;-61
2024/03/25 10:18:34;;;;;;;;;;;;;;;;;;5107428;28;19919;-60
2024/03/25 10:20:59;;;;;;;;;;;;;;;;;;5113745;28;20386;-60
2024/03/25 10:23:27;;;;;;;;;;;;;;;;;;5114661;28;20312;-60
2024/03/25 10:25:52;;;;;;;;;;;;;;;;;;5114186;28;19923;-60
2024/03/25 10:28:17;;;;;;;;;;;;;;;;;;5110872;28;19915;-61
2024/03/25 10:30:42;;;;;;;;;;;;;;;;;;5106256;28;19908;-61
2024/03/25 10:33:07;;;;;;;;;;;;;;;;;;5093904;28;19916;-60
2024/03/25 10:35:33;;;;;;;;;;;;;;;;;;5094071;28;19943;-61
2024/03/25 10:37:58;;;;;;;;;;;;;;;;;;5093591;28;20471;-61
2024/03/25 10:40:23;;;;;;;;;;;;;;;;;;5093436;28;20046;-60
2024/03/25 10:42:48;;;;;;;;;;;;;;;;;;5093746;28;19935;-61
2024/03/25 10:45:13;;;;;;;;;;;;;;;;;;5093696;28;19915;-61
2024/03/25 10:47:38;;;;;;;;;;;;;;;;;;5111340;28;19961;-60
2024/03/25 10:50:04;;;;;;;;;;;;;;;;;;5111476;28;19956;-62
2024/03/25 10:52:30;;;;;;;;;;;;;;;;;;5111676;28;19966;-60
2024/03/25 10:54:55;;;;;;;;;;;;;;;;;;5114036;28;20021;-60
2024/03/25 10:57:20;;;;;;;;;;;;;;;;;;5113604;28;19904;-60
2024/03/25 10:59:45;;;;;;;;;;;;;;;;;;5113502;28;19912;-60
2024/03/25 11:02:10;;;;;;;;;;;;;;;;;;5110333;28;19947;-61
2024/03/25 11:04:36;;;;;;;;;;;;;;;;;;5112922;28;19912;-61
2024/03/25 11:07:01;;;;;;;;;;;;;;;;;;5113715;28;20419;-60
2024/03/25 11:09:26;;;;;;;;;;;;;;;;;;5113741;28;20372;-61
2024/03/25 11:11:51;;;;;;;;;;;;;;;;;;5113621;28;20271;-61
2024/03/25 11:14:16;;;;;;;;;;;;;;;;;;5097369;28;20326;-60
2024/03/25 11:16:41;;;;;;;;;;;;;;;;;;5096328;28;19929;-61
2024/03/25 11:19:06;;;;;;;;;;;;;;;;;;5111474;28;19920;-60
2024/03/25 11:21:32;;;;;;;;;;;;;;;;;;5097409;28;19908;-61
2024/03/25 11:23:57;;;;;;;;;;;;;;;;;;5113572;28;19908;-61
2024/03/25 11:26:22;;;;;;;;;;;;;;;;;;5113435;28;19908;-60
2024/03/25 11:28:47;;;;;;;;;;;;;;;;;;5112867;28;19908;-61
2024/03/25 11:31:12;;;;;;;;;;;;;;;;;;5100801;28;19920;-61
2024/03/25 11:33:37;;;;;;;;;;;;;;;;;;5096678;28;19972;-60
2024/03/25 11:36:03;;;;;;;;;;;;;;;;;;5092379;28;19965;-60
2024/03/25 11:38:28;;;;;;;;;;;;;;;;;;5092507;28;19960;-60
2024/03/25 11:40:53;;;;;;;;;;;;;;;;;;5106544;28;19934;-61
2024/03/25 11:43:19;;;;;;;;;;;;;;;;;;5100714;28;20445;-61
2024/03/25 11:45:44;;;;;;;;;;;;;;;;;;5112828;28;19923;-61
2024/03/25 11:48:09;;;;;;;;;;;;;;;;;;5105792;28;19912;-60
2024/03/25 11:50:34;;;;;;;;;;;;;;;;;;5092392;28;19952;-61
2024/03/25 11:52:59;;;;;;;;;;;;;;;;;;5092277;28;19912;-61
2024/03/25 11:55:24;;;;;;;;;;;;;;;;;;5092746;28;19915;-61
2024/03/25 11:57:50;;;;;;;;;;;;;;;;;;5092255;28;19915;-61
2024/03/25 12:00:15;;;;;;;;;;;;;;;;;;5092046;28;19912;-61
2024/03/25 12:02:40;;;;;;;;;;;;;;;;;;5091713;28;19951;-60
2024/03/25 12:05:05;;;;;;;;;;;;;;;;;;5092289;28;19915;-60
2024/03/25 12:07:30;;;;;;;;;;;;;;;;;;5092046;28;19919;-60
2024/03/25 12:12:40;;;;;;;;;;;;;;;;;;5092204;28;20292;-60
2024/03/25 12:15:06;;;;;;;;;;;;;;;;;;5091999;28;20003;-60
2024/03/25 12:17:31;;;;;;;;;;;;;;;;;;5092069;28;19912;-61
2024/03/25 12:19:56;;;;;;;;;;;;;;;;;;5091661;28;19923;-63
2024/03/25 12:22:21;;;;;;;;;;;;;;;;;;5091632;28;19919;-63
2024/03/25 12:24:47;;;;;;;;;;;;;;;;;;5091706;28;19933;-63
2024/03/25 12:27:12;;;;;;;;;;;;;;;;;;5091521;28;19999;-63
2024/03/25 12:29:37;;;;;;;;;;;;;;;;;;5091727;28;19917;-63
2024/03/25 12:32:03;;;;;;;;;;;;;;;;;;5088282;28;19908;-63
2024/03/25 12:34:28;;;;;;;;;;;;;;;;;;5111429;28;19916;-63
2024/03/25 12:36:53;;;;;;;;;;;;;;;;;;5111817;28;19915;-63
2024/03/25 12:39:18;;;;;;;;;;;;;;;;;;5111540;28;19982;-63
2024/03/25 12:41:44;;;;;;;;;;;;;;;;;;5111732;28;19934;-63
2024/03/25 12:44:09;;;;;;;;;;;;;;;;;;5096739;28;19941;-63
2024/03/25 12:46:34;;;;;;;;;;;;;;;;;;5091849;28;19908;-63
2024/03/25 12:48:59;;;;;;;;;;;;;;;;;;5107819;28;19912;-63
2024/03/25 12:51:24;;;;;;;;;;;;;;;;;;5091774;28;19912;-63
2024/03/25 12:53:49;;;;;;;;;;;;;;;;;;5091238;28;20005;-63
2024/03/25 12:56:14;;;;;;;;;;;;;;;;;;5093747;28;19915;-63
2024/03/25 12:58:39;;;;;;;;;;;;;;;;;;5092123;28;19912;-63
2024/03/25 13:01:05;;;;;;;;;;;;;;;;;;5091541;28;20003;-64
2024/03/25 13:03:30;;;;;;;;;;;;;;;;;;5091574;28;19908;-63
2024/03/25 13:05:58;;;;;;;;;;;;;;;;;;5091649;28;19912;-64
2024/03/25 13:08:23;;;;;;;;;;;;;;;;;;5091449;28;19916;-63
2024/03/25 13:10:48;;;;;;;;;;;;;;;;;;5091464;28;19908;-63
2024/03/25 13:13:13;;;;;;;;;;;;;;;;;;5098717;28;20367;-63
2024/03/25 13:15:38;;;;;;;;;;;;;;;;;;5111550;28;19912;-63
2024/03/25 13:18:03;;;;;;;;;;;;;;;;;;5097108;28;19912;-63
2024/03/25 13:20:29;;;;;;;;;;;;;;;;;;5106947;28;19923;-63
2024/03/25 13:22:57;;;;;;;;;;;;;;;;;;5113628;28;19991;-63
2024/03/25 13:25:22;;;;;;;;;;;;;;;;;;5095246;28;19919;-62
2024/03/25 13:27:47;;;;;;;;;;;;;;;;;;5105937;28;19915;-63
2024/03/25 13:30:12;;;;;;;;;;;;;;;;;;5111815;28;19952;-63
2024/03/25 13:32:37;;;;;;;;;;;;;;;;;;5096834;28;19931;-63
2024/03/25 13:35:02;;;;;;;;;;;;;;;;;;5113354;28;19935;-61
2024/03/25 13:37:27;;;;;;;;;;;;;;;;;;5115147;28;20310;-63
2024/03/25 13:39:53;;;;;;;;;;;;;;;;;;5114512;28;19978;-64
2024/03/25 13:42:18;;;;;;;;;;;;;;;;;;5114938;28;19912;-63
2024/03/25 13:44:43;;;;;;;;;;;;;;;;;;5095073;28;19912;-63
2024/03/25 13:47:08;;;;;;;;;;;;;;;;;;5094619;28;19913;-64
2024/03/25 13:49:34;;;;;;;;;;;;;;;;;;5097512;28;19943;-63
2024/03/25 13:51:59;;;;;;;;;;;;;;;;;;5103646;28;20279;-64
2024/03/25 13:54:24;;;;;;;;;;;;;;;;;;5113913;28;20275;-63
2024/03/25 13:56:49;;;;;;;;;;;;;;;;;;5109349;28;19956;-63
2024/03/25 13:59:14;;;;;;;;;;;;;;;;;;5094345;28;19916;-63
2024/03/25 14:01:39;;;;;;;;;;;;;;;;;;5094264;28;19912;-63
2024/03/25 14:04:05;;;;;;;;;;;;;;;;;;5094549;28;19908;-63
2024/03/25 14:06:31;;;;;;;;;;;;;;;;;;5094177;28;19912;-63
2024/03/25 14:08:56;;;;;;;;;;;;;;;;;;5094042;28;19909;-63
2024/03/25 14:11:21;;;;;;;;;;;;;;;;;;5094067;28;19962;-63
2024/03/25 14:13:46;;;;;;;;;;;;;;;;;;5106024;28;19919;-63
2024/03/25 14:16:11;;;;;;;;;;;;;;;;;;5114383;28;19917;-63
2024/03/25 14:18:37;;;;;;;;;;;;;;;;;;5114479;28;19916;-63
2024/03/25 14:21:02;;;;;;;;;;;;;;;;;;5113466;28;19941;-63
2024/03/25 14:23:27;;;;;;;;;;;;;;;;;;5114466;28;19912;-63
2024/03/25 14:25:53;;;;;;;;;;;;;;;;;;5114164;28;19912;-63
2024/03/25 14:28:18;;;;;;;;;;;;;;;;;;5114437;28;19912;-63
2024/03/25 14:30:43;;;;;;;;;;;;;;;;;;5106382;28;19908;-63
2024/03/25 14:33:09;;;;;;;;;;;;;;;;;;5093253;28;20002;-63
2024/03/25 14:35:34;;;;;;;;;;;;;;;;;;5093735;28;19962;-63
2024/03/25 14:37:59;;;;;;;;;;;;;;;;;;5093523;28;20003;-63
2024/03/25 14:40:24;;;;;;;;;;;;;;;;;;5093314;28;19924;-63
2024/03/25 14:42:49;;;;;;;;;;;;;;;;;;5105889;28;19919;-63
2024/03/25 14:45:14;;;;;;;;;;;;;;;;;;5113983;28;19908;-63
2024/03/25 14:47:39;;;;;;;;;;;;;;;;;;5114198;28;19908;-63
2024/03/25 14:50:05;;;;;;;;;;;;;;;;;;5110765;28;19977;-64
2024/03/25 14:52:30;;;;;;;;;;;;;;;;;;5113133;28;20343;-64
2024/03/25 14:54:55;;;;;;;;;;;;;;;;;;5111970;28;19912;-63
2024/03/25 14:57:20;;;;;;;;;;;;;;;;;;5113563;28;19950;-63
2024/03/25 14:59:45;;;;;;;;;;;;;;;;;;5099633;28;19912;-63
2024/03/25 15:02:12;;;;;;;;;;;;;;;;;;5093242;28;20364;-63
2024/03/25 15:04:42;;;;;;;;;;;;;;;;;;5093415;28;20413;-63
2024/03/25 15:07:07;;;;;;;;;;;;;;;;;;5093015;28;19916;-63
2024/03/25 15:09:33;;;;;;;;;;;;;;;;;;5094107;28;19938;-64
2024/03/25 15:11:58;;;;;;;;;;;;;;;;;;5113585;28;19923;-63
2024/03/25 15:14:24;;;;;;;;;;;;;;;;;;5113414;28;19919;-63
2024/03/25 15:16:49;;;;;;;;;;;;;;;;;;5112145;28;19912;-63
2024/03/25 15:19:15;;;;;;;;;;;;;;;;;;5109203;28;19969;-63
2024/03/25 15:21:40;;;;;;;;;;;;;;;;;;5093270;28;19958;-63
2024/03/25 15:24:05;;;;;;;;;;;;;;;;;;5092962;28;19915;-63
2024/03/25 15:26:30;;;;;;;;;;;;;;;;;;5092914;28;20260;-64
2024/03/25 15:28:55;;;;;;;;;;;;;;;;;;5092842;28;20221;-63
2024/03/25 15:31:20;;;;;;;;;;;;;;;;;;5106040;28;19908;-63
2024/03/25 15:33:45;;;;;;;;;;;;;;;;;;5113109;28;19915;-63
2024/03/25 15:36:11;;;;;;;;;;;;;;;;;;5112813;28;19955;-64
2024/03/25 15:38:36;;;;;;;;;;;;;;;;;;5109020;28;20293;-63
2024/03/25 15:41:02;;;;;;;;;;;;;;;;;;5095177;28;19920;-64
2024/03/25 15:43:27;;;;;;;;;;;;;;;;;;5092464;28;19916;-63
2024/03/25 15:45:52;;;;;;;;;;;;;;;;;;5091649;28;19908;-64
2024/03/25 15:48:17;;;;;;;;;;;;;;;;;;5092653;28;19918;-64
2024/03/25 15:50:43;;;;;;;;;;;;;;;;;;5092635;28;19946;-64
2024/03/25 15:53:08;;;;;;;;;;;;;;;;;;5101813;28;19968;-64
2024/03/25 15:55:33;;;;;;;;;;;;;;;;;;5112505;28;19920;-64
2024/03/25 15:57:58;;;;;;;;;;;;;;;;;;5104231;28;19923;-66
2024/03/25 16:00:24;;;;;;;;;;;;;;;;;;5098785;28;20019;-64
2024/03/25 16:02:51;;;;;;;;;;;;;;;;;;5107889;28;20317;-64
2024/03/25 16:05:17;;;;;;;;;;;;;;;;;;5092964;28;19916;-64
2024/03/25 16:07:42;;;;;;;;;;;;;;;;;;5111522;28;19964;-64
2024/03/25 16:10:07;;;;;;;;;;;;;;;;;;5112148;28;19920;-64
2024/03/25 16:12:32;;;;;;;;;;;;;;;;;;5106990;28;19943;-64
2024/03/25 16:14:57;;;;;;;;;;;;;;;;;;5112124;28;19916;-64
2024/03/25 16:17:23;;;;;;;;;;;;;;;;;;5109270;28;19911;-62
2024/03/25 16:19:48;;;;;;;;;;;;;;;;;;5096589;28;19912;-62
2024/03/25 16:22:13;;;;;;;;;;;;;;;;;;5111375;28;19907;-61
2024/03/25 16:24:38;;;;;;;;;;;;;;;;;;5101657;28;19919;-61
2024/03/25 16:27:03;;;;;;;;;;;;;;;;;;5110511;28;19984;-61
2024/03/25 16:29:29;;;;;;;;;;;;;;;;;;5098019;28;19968;-64
2024/03/25 16:31:54;;;;;;;;;;;;;;;;;;5108739;28;19942;-64
2024/03/25 16:34:19;;;;;;;;;;;;;;;;;;5101498;28;20014;-64
2024/03/25 16:36:44;;;;;;;;;;;;;;;;;;5100375;28;19915;-64
2024/03/25 16:39:10;;;;;;;;;;;;;;;;;;5091104;28;20038;-64
2024/03/25 16:41:35;;;;;;;;;;;;;;;;;;5081828;28;19938;-64